sensor_id;sensor_type;location;lat;lon;timestamp;P1;durP1;ratioP1;P2;durP2;ratioP2
45358;SDS011;31096;49.292;8.710;2023-04-25T00:04:27;5.90;;;3.63;;
45358;SDS011;31096;49.292;8.710;2023-04-25T00:09:19;5.53;;;3.60;;
45358;SDS011;31096;49.292;8.710;2023-04-25T00:14:10;5.13;;;3.00;;
45358;SDS011;31096;49.292;8.710;2023-04-25T00:19:01;5.17;;;3.43;;
45358;SDS011;31096;49.292;8.710;2023-04-25T00:23:54;5.45;;;3.38;;
45358;SDS011;31096;49.292;8.710;2023-04-25T00:28:45;6.63;;;3.23;;
45358;SDS011;31096;49.292;8.710;2023-04-25T00:33:37;6.57;;;3.65;;
45358;SDS011;31096;49.292;8.710;2023-04-25T00:38:27;5.85;;;3.17;;
45358;SDS011;31096;49.292;8.710;2023-04-25T00:43:18;6.15;;;3.88;;
45358;SDS011;31096;49.292;8.710;2023-04-25T00:48:09;6.57;;;3.43;;
45358;SDS011;31096;49.292;8.710;2023-04-25T00:52:59;5.38;;;3.60;;
45358;SDS011;31096;49.292;8.710;2023-04-25T00:57:50;5.93;;;3.50;;
45358;SDS011;31096;49.292;8.710;2023-04-25T01:02:41;5.22;;;3.30;;
45358;SDS011;31096;49.292;8.710;2023-04-25T01:07:32;6.13;;;3.17;;
45358;SDS011;31096;49.292;8.710;2023-04-25T01:12:26;5.53;;;3.00;;
45358;SDS011;31096;49.292;8.710;2023-04-25T01:17:17;6.27;;;3.47;;
45358;SDS011;31096;49.292;8.710;2023-04-25T01:22:08;5.68;;;3.25;;
45358;SDS011;31096;49.292;8.710;2023-04-25T01:27:00;9.20;;;4.07;;
45358;SDS011;31096;49.292;8.710;2023-04-25T01:31:52;5.28;;;3.40;;
45358;SDS011;31096;49.292;8.710;2023-04-25T01:36:43;5.55;;;3.58;;
45358;SDS011;31096;49.292;8.710;2023-04-25T01:41:33;6.72;;;4.03;;
45358;SDS011;31096;49.292;8.710;2023-04-25T01:46:24;5.90;;;3.50;;
45358;SDS011;31096;49.292;8.710;2023-04-25T01:51:15;7.15;;;3.80;;
45358;SDS011;31096;49.292;8.710;2023-04-25T01:56:06;6.05;;;4.00;;
45358;SDS011;31096;49.292;8.710;2023-04-25T02:00:57;6.57;;;3.83;;
45358;SDS011;31096;49.292;8.710;2023-04-25T02:05:48;6.20;;;3.80;;
45358;SDS011;31096;49.292;8.710;2023-04-25T02:10:38;5.53;;;3.22;;
45358;SDS011;31096;49.292;8.710;2023-04-25T02:15:29;7.13;;;3.80;;
45358;SDS011;31096;49.292;8.710;2023-04-25T02:20:20;5.60;;;3.42;;
45358;SDS011;31096;49.292;8.710;2023-04-25T02:25:13;5.40;;;3.13;;
45358;SDS011;31096;49.292;8.710;2023-04-25T02:30:04;6.30;;;3.22;;
45358;SDS011;31096;49.292;8.710;2023-04-25T02:34:56;8.77;;;4.27;;
45358;SDS011;31096;49.292;8.710;2023-04-25T02:39:49;5.47;;;3.38;;
45358;SDS011;31096;49.292;8.710;2023-04-25T02:44:40;6.20;;;3.27;;
45358;SDS011;31096;49.292;8.710;2023-04-25T02:49:31;6.13;;;4.13;;
45358;SDS011;31096;49.292;8.710;2023-04-25T02:54:21;5.53;;;3.60;;
45358;SDS011;31096;49.292;8.710;2023-04-25T02:59:12;5.43;;;3.73;;
45358;SDS011;31096;49.292;8.710;2023-04-25T03:04:03;5.90;;;3.40;;
45358;SDS011;31096;49.292;8.710;2023-04-25T03:08:54;6.60;;;4.55;;
45358;SDS011;31096;49.292;8.710;2023-04-25T03:13:45;8.50;;;4.30;;
45358;SDS011;31096;49.292;8.710;2023-04-25T03:18:35;6.82;;;4.05;;
45358;SDS011;31096;49.292;8.710;2023-04-25T03:23:26;9.07;;;4.67;;
45358;SDS011;31096;49.292;8.710;2023-04-25T03:28:17;7.38;;;4.05;;
45358;SDS011;31096;49.292;8.710;2023-04-25T03:33:07;6.97;;;4.40;;
45358;SDS011;31096;49.292;8.710;2023-04-25T03:37:58;6.50;;;4.33;;
45358;SDS011;31096;49.292;8.710;2023-04-25T03:42:49;10.85;;;4.82;;
45358;SDS011;31096;49.292;8.710;2023-04-25T03:47:40;6.73;;;4.00;;
45358;SDS011;31096;49.292;8.710;2023-04-25T03:52:30;8.07;;;4.80;;
45358;SDS011;31096;49.292;8.710;2023-04-25T03:57:21;7.80;;;3.88;;
45358;SDS011;31096;49.292;8.710;2023-04-25T04:02:12;7.30;;;4.40;;
45358;SDS011;31096;49.292;8.710;2023-04-25T04:07:03;7.38;;;4.40;;
45358;SDS011;31096;49.292;8.710;2023-04-25T04:11:54;6.53;;;3.80;;
45358;SDS011;31096;49.292;8.710;2023-04-25T04:16:44;8.57;;;4.63;;
45358;SDS011;31096;49.292;8.710;2023-04-25T04:21:35;8.60;;;5.23;;
45358;SDS011;31096;49.292;8.710;2023-04-25T04:26:26;7.73;;;4.97;;
45358;SDS011;31096;49.292;8.710;2023-04-25T04:31:17;9.38;;;4.88;;
45358;SDS011;31096;49.292;8.710;2023-04-25T04:36:09;8.45;;;5.07;;
45358;SDS011;31096;49.292;8.710;2023-04-25T04:41:00;7.80;;;4.43;;
45358;SDS011;31096;49.292;8.710;2023-04-25T04:45:50;7.93;;;4.87;;
45358;SDS011;31096;49.292;8.710;2023-04-25T04:50:45;8.73;;;4.60;;
45358;SDS011;31096;49.292;8.710;2023-04-25T04:55:36;6.47;;;4.15;;
45358;SDS011;31096;49.292;8.710;2023-04-25T05:00:26;6.53;;;4.20;;
45358;SDS011;31096;49.292;8.710;2023-04-25T05:05:19;7.40;;;4.40;;
45358;SDS011;31096;49.292;8.710;2023-04-25T05:10:09;9.00;;;4.93;;
45358;SDS011;31096;49.292;8.710;2023-04-25T05:15:00;6.27;;;4.10;;
45358;SDS011;31096;49.292;8.710;2023-04-25T05:19:51;10.38;;;4.30;;
45358;SDS011;31096;49.292;8.710;2023-04-25T05:24:42;7.60;;;4.18;;
45358;SDS011;31096;49.292;8.710;2023-04-25T05:29:33;7.43;;;4.97;;
45358;SDS011;31096;49.292;8.710;2023-04-25T05:34:25;8.32;;;5.10;;
45358;SDS011;31096;49.292;8.710;2023-04-25T05:39:16;7.35;;;5.05;;
45358;SDS011;31096;49.292;8.710;2023-04-25T05:44:07;8.98;;;5.40;;
45358;SDS011;31096;49.292;8.710;2023-04-25T05:48:58;8.30;;;5.43;;
45358;SDS011;31096;49.292;8.710;2023-04-25T05:53:48;7.70;;;5.03;;
45358;SDS011;31096;49.292;8.710;2023-04-25T05:58:39;7.40;;;5.28;;
45358;SDS011;31096;49.292;8.710;2023-04-25T06:03:30;7.40;;;4.43;;
45358;SDS011;31096;49.292;8.710;2023-04-25T06:08:20;8.77;;;4.67;;
45358;SDS011;31096;49.292;8.710;2023-04-25T06:13:11;9.50;;;4.47;;
45358;SDS011;31096;49.292;8.710;2023-04-25T06:18:02;7.40;;;4.83;;
45358;SDS011;31096;49.292;8.710;2023-04-25T06:22:53;7.50;;;4.23;;
45358;SDS011;31096;49.292;8.710;2023-04-25T06:27:43;8.25;;;5.50;;
45358;SDS011;31096;49.292;8.710;2023-04-25T06:32:34;8.57;;;5.57;;
45358;SDS011;31096;49.292;8.710;2023-04-25T06:37:25;7.65;;;5.03;;
45358;SDS011;31096;49.292;8.710;2023-04-25T06:42:16;8.13;;;5.23;;
45358;SDS011;31096;49.292;8.710;2023-04-25T06:47:06;9.07;;;5.03;;
45358;SDS011;31096;49.292;8.710;2023-04-25T06:51:57;8.63;;;5.80;;
45358;SDS011;31096;49.292;8.710;2023-04-25T06:56:48;8.67;;;6.27;;
45358;SDS011;31096;49.292;8.710;2023-04-25T07:01:39;10.02;;;6.50;;
45358;SDS011;31096;49.292;8.710;2023-04-25T07:06:30;9.60;;;5.80;;
45358;SDS011;31096;49.292;8.710;2023-04-25T07:11:21;11.43;;;6.05;;
45358;SDS011;31096;49.292;8.710;2023-04-25T07:16:11;9.17;;;5.70;;
45358;SDS011;31096;49.292;8.710;2023-04-25T07:21:02;9.40;;;5.53;;
45358;SDS011;31096;49.292;8.710;2023-04-25T07:25:53;8.67;;;5.93;;
45358;SDS011;31096;49.292;8.710;2023-04-25T07:30:44;8.38;;;5.38;;
45358;SDS011;31096;49.292;8.710;2023-04-25T07:35:36;10.97;;;6.77;;
45358;SDS011;31096;49.292;8.710;2023-04-25T07:40:27;9.40;;;6.32;;
45358;SDS011;31096;49.292;8.710;2023-04-25T07:45:17;11.57;;;6.80;;
45358;SDS011;31096;49.292;8.710;2023-04-25T07:50:08;12.93;;;8.03;;
45358;SDS011;31096;49.292;8.710;2023-04-25T07:55:00;15.93;;;7.85;;
45358;SDS011;31096;49.292;8.710;2023-04-25T07:59:51;15.83;;;8.80;;
45358;SDS011;31096;49.292;8.710;2023-04-25T08:04:42;13.35;;;7.85;;
45358;SDS011;31096;49.292;8.710;2023-04-25T08:09:33;19.83;;;8.27;;
45358;SDS011;31096;49.292;8.710;2023-04-25T08:14:25;12.30;;;7.32;;
45358;SDS011;31096;49.292;8.710;2023-04-25T08:19:16;15.27;;;8.57;;
45358;SDS011;31096;49.292;8.710;2023-04-25T08:24:06;13.73;;;6.35;;
45358;SDS011;31096;49.292;8.710;2023-04-25T08:28:57;14.63;;;7.53;;
45358;SDS011;31096;49.292;8.710;2023-04-25T08:33:48;13.27;;;6.37;;
45358;SDS011;31096;49.292;8.710;2023-04-25T08:38:41;10.52;;;5.22;;
45358;SDS011;31096;49.292;8.710;2023-04-25T08:43:31;16.27;;;6.43;;
45358;SDS011;31096;49.292;8.710;2023-04-25T08:48:22;13.23;;;6.68;;
45358;SDS011;31096;49.292;8.710;2023-04-25T08:53:14;13.50;;;6.87;;
45358;SDS011;31096;49.292;8.710;2023-04-25T08:58:08;12.40;;;7.10;;
45358;SDS011;31096;49.292;8.710;2023-04-25T09:03:00;15.68;;;6.75;;
45358;SDS011;31096;49.292;8.710;2023-04-25T09:07:51;9.97;;;5.80;;
45358;SDS011;31096;49.292;8.710;2023-04-25T09:12:42;12.18;;;5.28;;
45358;SDS011;31096;49.292;8.710;2023-04-25T09:17:33;12.63;;;5.27;;
45358;SDS011;31096;49.292;8.710;2023-04-25T09:22:24;10.75;;;5.82;;
45358;SDS011;31096;49.292;8.710;2023-04-25T09:27:18;13.03;;;5.73;;
45358;SDS011;31096;49.292;8.710;2023-04-25T09:32:22;9.80;;;6.03;;
45358;SDS011;31096;49.292;8.710;2023-04-25T09:37:21;15.50;;;6.38;;
45358;SDS011;31096;49.292;8.710;2023-04-25T09:42:14;10.57;;;5.10;;
45358;SDS011;31096;49.292;8.710;2023-04-25T09:47:09;9.73;;;4.88;;
45358;SDS011;31096;49.292;8.710;2023-04-25T09:52:02;10.20;;;5.22;;
45358;SDS011;31096;49.292;8.710;2023-04-25T09:56:53;10.50;;;5.30;;
45358;SDS011;31096;49.292;8.710;2023-04-25T10:01:44;10.77;;;4.65;;
45358;SDS011;31096;49.292;8.710;2023-04-25T10:06:35;9.73;;;4.70;;
45358;SDS011;31096;49.292;8.710;2023-04-25T10:11:26;8.65;;;4.57;;
45358;SDS011;31096;49.292;8.710;2023-04-25T10:16:18;9.47;;;4.87;;
45358;SDS011;31096;49.292;8.710;2023-04-25T10:21:09;11.47;;;5.83;;
45358;SDS011;31096;49.292;8.710;2023-04-25T10:26:00;14.15;;;5.68;;
45358;SDS011;31096;49.292;8.710;2023-04-25T10:30:56;10.53;;;6.00;;
45358;SDS011;31096;49.292;8.710;2023-04-25T10:35:52;11.57;;;5.25;;
45358;SDS011;31096;49.292;8.710;2023-04-25T10:41:01;10.83;;;4.47;;
45358;SDS011;31096;49.292;8.710;2023-04-25T10:45:59;11.70;;;5.22;;
45358;SDS011;31096;49.292;8.710;2023-04-25T10:50:52;9.85;;;5.32;;
45358;SDS011;31096;49.292;8.710;2023-04-25T10:56:08;12.43;;;5.60;;
45358;SDS011;31096;49.292;8.710;2023-04-25T11:01:10;10.33;;;5.20;;
45358;SDS011;31096;49.292;8.710;2023-04-25T11:06:02;11.60;;;5.30;;
45358;SDS011;31096;49.292;8.710;2023-04-25T11:10:53;8.00;;;4.40;;
45358;SDS011;31096;49.292;8.710;2023-04-25T11:15:45;8.53;;;4.90;;
45358;SDS011;31096;49.292;8.710;2023-04-25T11:20:35;7.53;;;4.93;;
45358;SDS011;31096;49.292;8.710;2023-04-25T11:25:26;10.10;;;4.07;;
45358;SDS011;31096;49.292;8.710;2023-04-25T11:30:17;10.27;;;4.90;;
45358;SDS011;31096;49.292;8.710;2023-04-25T11:35:09;8.95;;;4.78;;
45358;SDS011;31096;49.292;8.710;2023-04-25T11:40:00;8.70;;;5.15;;
45358;SDS011;31096;49.292;8.710;2023-04-25T11:44:52;8.50;;;4.97;;
45358;SDS011;31096;49.292;8.710;2023-04-25T11:49:43;10.20;;;5.00;;
45358;SDS011;31096;49.292;8.710;2023-04-25T11:54:37;8.17;;;4.80;;
45358;SDS011;31096;49.292;8.710;2023-04-25T11:59:28;10.20;;;5.97;;
45358;SDS011;31096;49.292;8.710;2023-04-25T12:04:22;9.37;;;4.80;;
45358;SDS011;31096;49.292;8.710;2023-04-25T12:09:16;14.43;;;5.15;;
45358;SDS011;31096;49.292;8.710;2023-04-25T12:14:11;9.87;;;5.60;;
45358;SDS011;31096;49.292;8.710;2023-04-25T12:19:14;7.38;;;4.28;;
45358;SDS011;31096;49.292;8.710;2023-04-25T12:24:23;8.95;;;5.00;;
45358;SDS011;31096;49.292;8.710;2023-04-25T12:29:16;7.13;;;3.73;;
45358;SDS011;31096;49.292;8.710;2023-04-25T12:34:12;9.02;;;4.32;;
45358;SDS011;31096;49.292;8.710;2023-04-25T12:39:02;9.18;;;4.88;;
45358;SDS011;31096;49.292;8.710;2023-04-25T12:43:54;7.03;;;4.17;;
45358;SDS011;31096;49.292;8.710;2023-04-25T12:48:45;7.25;;;4.47;;
45358;SDS011;31096;49.292;8.710;2023-04-25T12:53:36;10.43;;;4.83;;
45358;SDS011;31096;49.292;8.710;2023-04-25T12:58:27;8.98;;;5.18;;
45358;SDS011;31096;49.292;8.710;2023-04-25T13:03:18;9.03;;;4.73;;
45358;SDS011;31096;49.292;8.710;2023-04-25T13:08:09;8.90;;;5.38;;
45358;SDS011;31096;49.292;8.710;2023-04-25T13:13:00;11.23;;;5.53;;
45358;SDS011;31096;49.292;8.710;2023-04-25T13:17:51;8.35;;;4.35;;
45358;SDS011;31096;49.292;8.710;2023-04-25T13:22:42;8.10;;;4.70;;
45358;SDS011;31096;49.292;8.710;2023-04-25T13:27:35;6.50;;;4.03;;
45358;SDS011;31096;49.292;8.710;2023-04-25T13:32:27;7.82;;;4.40;;
45358;SDS011;31096;49.292;8.710;2023-04-25T13:37:18;7.17;;;4.10;;
45358;SDS011;31096;49.292;8.710;2023-04-25T13:42:08;8.68;;;4.40;;
45358;SDS011;31096;49.292;8.710;2023-04-25T13:46:59;8.87;;;4.77;;
45358;SDS011;31096;49.292;8.710;2023-04-25T13:51:50;6.43;;;3.90;;
45358;SDS011;31096;49.292;8.710;2023-04-25T13:56:41;10.70;;;5.23;;
45358;SDS011;31096;49.292;8.710;2023-04-25T14:01:32;9.77;;;4.30;;
45358;SDS011;31096;49.292;8.710;2023-04-25T14:06:25;8.85;;;4.55;;
45358;SDS011;31096;49.292;8.710;2023-04-25T14:11:17;8.75;;;4.25;;
45358;SDS011;31096;49.292;8.710;2023-04-25T14:16:08;5.73;;;3.67;;
45358;SDS011;31096;49.292;8.710;2023-04-25T14:20:58;8.55;;;4.85;;
45358;SDS011;31096;49.292;8.710;2023-04-25T14:25:49;11.13;;;5.20;;
45358;SDS011;31096;49.292;8.710;2023-04-25T14:30:40;9.27;;;4.93;;
45358;SDS011;31096;49.292;8.710;2023-04-25T14:35:31;7.97;;;5.00;;
45358;SDS011;31096;49.292;8.710;2023-04-25T14:40:22;12.27;;;4.55;;
45358;SDS011;31096;49.292;8.710;2023-04-25T14:45:13;8.17;;;4.40;;
45358;SDS011;31096;49.292;8.710;2023-04-25T14:50:04;7.78;;;4.80;;
45358;SDS011;31096;49.292;8.710;2023-04-25T14:54:58;11.20;;;4.80;;
45358;SDS011;31096;49.292;8.710;2023-04-25T14:59:51;10.18;;;4.93;;
45358;SDS011;31096;49.292;8.710;2023-04-25T15:04:43;8.50;;;5.07;;
45358;SDS011;31096;49.292;8.710;2023-04-25T15:09:34;8.90;;;4.80;;
45358;SDS011;31096;49.292;8.710;2023-04-25T15:14:25;9.30;;;4.10;;
45358;SDS011;31096;49.292;8.710;2023-04-25T15:19:16;7.00;;;4.37;;
45358;SDS011;31096;49.292;8.710;2023-04-25T15:24:07;9.57;;;4.57;;
45358;SDS011;31096;49.292;8.710;2023-04-25T15:28:57;9.20;;;4.63;;
45358;SDS011;31096;49.292;8.710;2023-04-25T15:33:49;12.27;;;4.90;;
45358;SDS011;31096;49.292;8.710;2023-04-25T15:38:40;7.20;;;4.00;;
45358;SDS011;31096;49.292;8.710;2023-04-25T15:43:30;6.85;;;4.18;;
45358;SDS011;31096;49.292;8.710;2023-04-25T15:48:21;8.27;;;4.13;;
45358;SDS011;31096;49.292;8.710;2023-04-25T15:53:12;9.57;;;4.47;;
45358;SDS011;31096;49.292;8.710;2023-04-25T15:58:02;8.05;;;3.83;;
45358;SDS011;31096;49.292;8.710;2023-04-25T16:02:53;9.20;;;4.47;;
45358;SDS011;31096;49.292;8.710;2023-04-25T16:07:45;8.75;;;4.13;;
45358;SDS011;31096;49.292;8.710;2023-04-25T16:12:37;7.20;;;3.77;;
45358;SDS011;31096;49.292;8.710;2023-04-25T16:17:29;9.30;;;4.80;;
45358;SDS011;31096;49.292;8.710;2023-04-25T16:22:22;7.85;;;4.13;;
45358;SDS011;31096;49.292;8.710;2023-04-25T16:27:12;9.53;;;3.80;;
45358;SDS011;31096;49.292;8.710;2023-04-25T16:32:04;7.75;;;3.85;;
45358;SDS011;31096;49.292;8.710;2023-04-25T16:36:55;10.63;;;4.40;;
45358;SDS011;31096;49.292;8.710;2023-04-25T16:41:47;10.50;;;4.67;;
45358;SDS011;31096;49.292;8.710;2023-04-25T16:46:38;8.90;;;4.88;;
45358;SDS011;31096;49.292;8.710;2023-04-25T16:51:28;9.53;;;4.83;;
45358;SDS011;31096;49.292;8.710;2023-04-25T16:56:19;8.25;;;3.90;;
45358;SDS011;31096;49.292;8.710;2023-04-25T17:01:10;8.63;;;4.83;;
45358;SDS011;31096;49.292;8.710;2023-04-25T17:06:05;9.02;;;4.28;;
45358;SDS011;31096;49.292;8.710;2023-04-25T17:10:56;7.60;;;4.05;;
45358;SDS011;31096;49.292;8.710;2023-04-25T17:15:47;7.83;;;3.83;;
45358;SDS011;31096;49.292;8.710;2023-04-25T17:20:37;9.23;;;3.83;;
45358;SDS011;31096;49.292;8.710;2023-04-25T17:25:29;7.85;;;3.67;;
45358;SDS011;31096;49.292;8.710;2023-04-25T17:30:22;7.35;;;3.78;;
45358;SDS011;31096;49.292;8.710;2023-04-25T17:35:13;6.93;;;3.80;;
45358;SDS011;31096;49.292;8.710;2023-04-25T17:40:06;6.65;;;3.60;;
45358;SDS011;31096;49.292;8.710;2023-04-25T17:45:00;7.65;;;3.78;;
45358;SDS011;31096;49.292;8.710;2023-04-25T17:49:51;6.73;;;4.03;;
45358;SDS011;31096;49.292;8.710;2023-04-25T17:54:43;7.70;;;4.70;;
45358;SDS011;31096;49.292;8.710;2023-04-25T17:59:34;6.80;;;3.97;;
45358;SDS011;31096;49.292;8.710;2023-04-25T18:04:25;8.25;;;4.50;;
45358;SDS011;31096;49.292;8.710;2023-04-25T18:09:16;9.37;;;4.60;;
45358;SDS011;31096;49.292;8.710;2023-04-25T18:14:12;8.75;;;4.32;;
45358;SDS011;31096;49.292;8.710;2023-04-25T18:19:05;9.23;;;5.20;;
45358;SDS011;31096;49.292;8.710;2023-04-25T18:24:00;7.97;;;4.30;;
45358;SDS011;31096;49.292;8.710;2023-04-25T18:28:51;7.47;;;4.43;;
45358;SDS011;31096;49.292;8.710;2023-04-25T18:33:41;8.07;;;4.30;;
45358;SDS011;31096;49.292;8.710;2023-04-25T18:38:32;9.27;;;4.90;;
45358;SDS011;31096;49.292;8.710;2023-04-25T18:43:23;7.75;;;4.45;;
45358;SDS011;31096;49.292;8.710;2023-04-25T18:48:14;9.60;;;4.53;;
45358;SDS011;31096;49.292;8.710;2023-04-25T18:53:05;8.40;;;4.18;;
45358;SDS011;31096;49.292;8.710;2023-04-25T18:57:55;7.93;;;4.27;;
45358;SDS011;31096;49.292;8.710;2023-04-25T19:02:46;9.73;;;4.87;;
45358;SDS011;31096;49.292;8.710;2023-04-25T19:07:37;8.95;;;4.22;;
45358;SDS011;31096;49.292;8.710;2023-04-25T19:12:29;8.03;;;5.00;;
45358;SDS011;31096;49.292;8.710;2023-04-25T19:17:22;10.45;;;5.13;;
45358;SDS011;31096;49.292;8.710;2023-04-25T19:22:13;7.90;;;4.83;;
45358;SDS011;31096;49.292;8.710;2023-04-25T19:27:03;10.82;;;4.35;;
45358;SDS011;31096;49.292;8.710;2023-04-25T19:31:54;11.17;;;5.00;;
45358;SDS011;31096;49.292;8.710;2023-04-25T19:36:46;9.50;;;5.47;;
45358;SDS011;31096;49.292;8.710;2023-04-25T19:41:37;9.47;;;5.10;;
45358;SDS011;31096;49.292;8.710;2023-04-25T19:46:28;9.33;;;5.57;;
45358;SDS011;31096;49.292;8.710;2023-04-25T19:51:20;15.10;;;5.90;;
45358;SDS011;31096;49.292;8.710;2023-04-25T19:56:12;12.50;;;6.00;;
45358;SDS011;31096;49.292;8.710;2023-04-25T20:01:02;11.55;;;6.28;;
45358;SDS011;31096;49.292;8.710;2023-04-25T20:05:53;8.90;;;4.60;;
45358;SDS011;31096;49.292;8.710;2023-04-25T20:10:44;9.85;;;6.10;;
45358;SDS011;31096;49.292;8.710;2023-04-25T20:15:35;9.77;;;5.80;;
45358;SDS011;31096;49.292;8.710;2023-04-25T20:20:26;10.70;;;5.78;;
45358;SDS011;31096;49.292;8.710;2023-04-25T20:25:17;9.07;;;5.60;;
45358;SDS011;31096;49.292;8.710;2023-04-25T20:30:08;9.07;;;5.35;;
45358;SDS011;31096;49.292;8.710;2023-04-25T20:35:01;9.97;;;5.93;;
45358;SDS011;31096;49.292;8.710;2023-04-25T20:39:53;10.55;;;5.45;;
45358;SDS011;31096;49.292;8.710;2023-04-25T20:44:43;10.63;;;5.60;;
45358;SDS011;31096;49.292;8.710;2023-04-25T20:49:34;10.05;;;5.85;;
45358;SDS011;31096;49.292;8.710;2023-04-25T20:54:25;12.43;;;5.83;;
45358;SDS011;31096;49.292;8.710;2023-04-25T20:59:16;10.00;;;5.90;;
45358;SDS011;31096;49.292;8.710;2023-04-25T21:04:07;10.20;;;5.70;;
45358;SDS011;31096;49.292;8.710;2023-04-25T21:08:58;12.63;;;5.87;;
45358;SDS011;31096;49.292;8.710;2023-04-25T21:13:49;11.38;;;5.40;;
45358;SDS011;31096;49.292;8.710;2023-04-25T21:18:40;11.45;;;6.25;;
45358;SDS011;31096;49.292;8.710;2023-04-25T21:23:31;10.63;;;6.33;;
45358;SDS011;31096;49.292;8.710;2023-04-25T21:28:22;10.88;;;5.95;;
45358;SDS011;31096;49.292;8.710;2023-04-25T21:33:13;11.80;;;6.60;;
45358;SDS011;31096;49.292;8.710;2023-04-25T21:38:04;10.30;;;6.40;;
45358;SDS011;31096;49.292;8.710;2023-04-25T21:42:56;10.10;;;5.95;;
45358;SDS011;31096;49.292;8.710;2023-04-25T21:47:47;11.17;;;6.20;;
45358;SDS011;31096;49.292;8.710;2023-04-25T21:52:38;9.18;;;6.05;;
45358;SDS011;31096;49.292;8.710;2023-04-25T21:57:29;11.57;;;6.50;;
45358;SDS011;31096;49.292;8.710;2023-04-25T22:02:19;11.82;;;6.72;;
45358;SDS011;31096;49.292;8.710;2023-04-25T22:07:10;8.80;;;5.57;;
45358;SDS011;31096;49.292;8.710;2023-04-25T22:12:01;9.93;;;5.93;;
45358;SDS011;31096;49.292;8.710;2023-04-25T22:16:52;11.90;;;6.17;;
45358;SDS011;31096;49.292;8.710;2023-04-25T22:21:44;8.68;;;5.20;;
45358;SDS011;31096;49.292;8.710;2023-04-25T22:26:35;9.60;;;5.20;;
45358;SDS011;31096;49.292;8.710;2023-04-25T22:31:26;11.57;;;5.53;;
45358;SDS011;31096;49.292;8.710;2023-04-25T22:36:17;12.32;;;6.85;;
45358;SDS011;31096;49.292;8.710;2023-04-25T22:41:08;11.13;;;6.80;;
45358;SDS011;31096;49.292;8.710;2023-04-25T22:45:59;15.40;;;7.03;;
45358;SDS011;31096;49.292;8.710;2023-04-25T22:50:59;13.95;;;6.22;;
45358;SDS011;31096;49.292;8.710;2023-04-25T22:55:54;9.85;;;4.65;;
45358;SDS011;31096;49.292;8.710;2023-04-25T23:00:46;11.97;;;5.57;;
45358;SDS011;31096;49.292;8.710;2023-04-25T23:05:37;11.05;;;7.05;;
45358;SDS011;31096;49.292;8.710;2023-04-25T23:10:28;11.30;;;5.87;;
45358;SDS011;31096;49.292;8.710;2023-04-25T23:15:18;11.65;;;6.45;;
45358;SDS011;31096;49.292;8.710;2023-04-25T23:20:09;10.83;;;6.43;;
45358;SDS011;31096;49.292;8.710;2023-04-25T23:25:01;13.13;;;5.55;;
45358;SDS011;31096;49.292;8.710;2023-04-25T23:29:52;11.03;;;6.93;;
45358;SDS011;31096;49.292;8.710;2023-04-25T23:34:44;13.45;;;6.88;;
45358;SDS011;31096;49.292;8.710;2023-04-25T23:39:35;12.90;;;6.47;;
45358;SDS011;31096;49.292;8.710;2023-04-25T23:44:25;10.73;;;6.22;;
45358;SDS011;31096;49.292;8.710;2023-04-25T23:49:16;13.23;;;6.87;;
45358;SDS011;31096;49.292;8.710;2023-04-25T23:54:07;11.97;;;6.70;;
45358;SDS011;31096;49.292;8.710;2023-04-25T23:58:57;13.27;;;6.82;;
